sensor_id;sensor_type;location;lat;lon;timestamp;pressure;altitude;pressure_sealevel;temperature;humidity
45357;BME280;31092;51.924;21.448;2023-04-01T00:01:45;98270.13;;;7.46;100.00
45357;BME280;31092;51.924;21.448;2023-04-01T00:04:10;98239.50;;;7.27;100.00
45357;BME280;31092;51.924;21.448;2023-04-01T00:06:35;98305.31;;;7.64;100.00
45357;BME280;31092;51.924;21.448;2023-04-01T00:09:01;98327.19;;;7.68;100.00
45357;BME280;31092;51.924;21.448;2023-04-01T00:11:27;98304.13;;;7.46;100.00
45357;BME280;31092;51.924;21.448;2023-04-01T00:13:55;98272.22;;;7.23;100.00
45357;BME280;31092;51.924;21.448;2023-04-01T00:16:21;98295.41;;;7.37;100.00
45357;BME280;31092;51.924;21.448;2023-04-01T00:18:47;98248.53;;;6.98;100.00
45357;BME280;31092;51.924;21.448;2023-04-01T00:21:13;98320.34;;;7.37;100.00
45357;BME280;31092;51.924;21.448;2023-04-01T00:23:39;98334.19;;;7.41;100.00
45357;BME280;31092;51.924;21.448;2023-04-01T00:26:04;98338.38;;;7.50;100.00
45357;BME280;31092;51.924;21.448;2023-04-01T00:28:30;98231.38;;;6.92;100.00
45357;BME280;31092;51.924;21.448;2023-04-01T00:30:56;98315.66;;;7.46;100.00
45357;BME280;31092;51.924;21.448;2023-04-01T00:33:22;98243.84;;;7.07;100.00
45357;BME280;31092;51.924;21.448;2023-04-01T00:35:47;98263.09;;;7.17;100.00
45357;BME280;31092;51.924;21.448;2023-04-01T00:38:13;98305.31;;;7.36;100.00
45357;BME280;31092;51.924;21.448;2023-04-01T00:40:44;98255.44;;;7.14;100.00
45357;BME280;31092;51.924;21.448;2023-04-01T00:43:19;98322.34;;;7.57;100.00
45357;BME280;31092;51.924;21.448;2023-04-01T00:45:47;98195.38;;;6.74;100.00
45357;BME280;31092;51.924;21.448;2023-04-01T00:48:17;98252.09;;;7.05;100.00
45357;BME280;31092;51.924;21.448;2023-04-01T00:50:48;98225.94;;;6.86;100.00
45357;BME280;31092;51.924;21.448;2023-04-01T00:53:14;98339.72;;;7.39;100.00
45357;BME280;31092;51.924;21.448;2023-04-01T00:55:45;98254.78;;;6.84;100.00
45357;BME280;31092;51.924;21.448;2023-04-01T00:58:17;98345.28;;;7.38;100.00
45357;BME280;31092;51.924;21.448;2023-04-01T01:00:47;98309.66;;;7.16;100.00
45357;BME280;31092;51.924;21.448;2023-04-01T01:03:14;98262.91;;;6.97;100.00
45357;BME280;31092;51.924;21.448;2023-04-01T01:08:26;98310.00;;;7.34;100.00
45357;BME280;31092;51.924;21.448;2023-04-01T01:10:55;98308.44;;;7.40;100.00
45357;BME280;31092;51.924;21.448;2023-04-01T01:13:50;98333.00;;;7.50;100.00
45357;BME280;31092;51.924;21.448;2023-04-01T01:16:25;98335.75;;;7.57;100.00
45357;BME280;31092;51.924;21.448;2023-04-01T01:29:32;98265.72;;;7.10;100.00
45357;BME280;31092;51.924;21.448;2023-04-01T01:37:37;98295.16;;;7.10;100.00
45357;BME280;31092;51.924;21.448;2023-04-01T01:40:06;98323.09;;;7.23;100.00
45357;BME280;31092;51.924;21.448;2023-04-01T01:42:36;98296.63;;;7.13;100.00
45357;BME280;31092;51.924;21.448;2023-04-01T01:45:03;98222.91;;;6.67;100.00
45357;BME280;31092;51.924;21.448;2023-04-01T01:47:32;98277.53;;;6.94;100.00
45357;BME280;31092;51.924;21.448;2023-04-01T01:49:59;98235.81;;;6.64;100.00
45357;BME280;31092;51.924;21.448;2023-04-01T01:52:27;98291.16;;;7.00;100.00
45357;BME280;31092;51.924;21.448;2023-04-01T01:54:57;98210.25;;;6.40;100.00
45357;BME280;31092;51.924;21.448;2023-04-01T01:57:26;98219.81;;;6.49;100.00
45357;BME280;31092;51.924;21.448;2023-04-01T01:59:56;98293.50;;;6.88;100.00
45357;BME280;31092;51.924;21.448;2023-04-01T02:02:25;98315.00;;;6.94;100.00
45357;BME280;31092;51.924;21.448;2023-04-01T02:04:52;98205.53;;;6.20;100.00
45357;BME280;31092;51.924;21.448;2023-04-01T02:07:24;98194.38;;;6.17;100.00
45357;BME280;31092;51.924;21.448;2023-04-01T02:09:52;98185.63;;;6.08;100.00
45357;BME280;31092;51.924;21.448;2023-04-01T02:12:19;98255.09;;;6.38;100.00
45357;BME280;31092;51.924;21.448;2023-04-01T02:14:53;98292.84;;;6.50;100.00
45357;BME280;31092;51.924;21.448;2023-04-01T02:17:23;98207.34;;;5.90;100.00
45357;BME280;31092;51.924;21.448;2023-04-01T02:19:57;98271.97;;;6.23;100.00
45357;BME280;31092;51.924;21.448;2023-04-01T02:22:27;98277.81;;;6.12;100.00
45357;BME280;31092;51.924;21.448;2023-04-01T02:24:57;98297.59;;;6.18;100.00
45357;BME280;31092;51.924;21.448;2023-04-01T02:27:23;98279.31;;;5.92;100.00
45357;BME280;31092;51.924;21.448;2023-04-01T02:29:50;98192.53;;;5.28;100.00
45357;BME280;31092;51.924;21.448;2023-04-01T02:32:18;98233.25;;;5.45;100.00
45357;BME280;31092;51.924;21.448;2023-04-01T02:34:44;98290.19;;;5.75;100.00
45357;BME280;31092;51.924;21.448;2023-04-01T02:37:11;98236.06;;;5.29;100.00
45357;BME280;31092;51.924;21.448;2023-04-01T02:39:37;98221.63;;;5.23;100.00
45357;BME280;31092;51.924;21.448;2023-04-01T02:42:03;98296.34;;;5.76;100.00
45357;BME280;31092;51.924;21.448;2023-04-01T02:44:28;98278.94;;;5.65;100.00
45357;BME280;31092;51.924;21.448;2023-04-01T02:46:54;98283.91;;;5.68;100.00
45357;BME280;31092;51.924;21.448;2023-04-01T02:49:19;98296.53;;;5.74;100.00
45357;BME280;31092;51.924;21.448;2023-04-01T02:51:45;98234.78;;;5.40;100.00
45357;BME280;31092;51.924;21.448;2023-04-01T02:54:10;98297.09;;;5.85;100.00
45357;BME280;31092;51.924;21.448;2023-04-01T02:56:36;98227.53;;;5.48;100.00
45357;BME280;31092;51.924;21.448;2023-04-01T02:59:01;98297.03;;;5.93;100.00
45357;BME280;31092;51.924;21.448;2023-04-01T03:01:27;98231.31;;;5.54;100.00
45357;BME280;31092;51.924;21.448;2023-04-01T03:03:52;98302.69;;;5.98;100.00
45357;BME280;31092;51.924;21.448;2023-04-01T03:06:18;98292.25;;;6.03;100.00
45357;BME280;31092;51.924;21.448;2023-04-01T03:08:43;98131.25;;;5.06;100.00
45357;BME280;31092;51.924;21.448;2023-04-01T03:11:09;98309.66;;;6.14;100.00
45357;BME280;31092;51.924;21.448;2023-04-01T03:13:35;98313.06;;;6.22;100.00
45357;BME280;31092;51.924;21.448;2023-04-01T03:16:01;98290.31;;;6.12;100.00
45357;BME280;31092;51.924;21.448;2023-04-01T03:18:26;98239.53;;;5.82;100.00
45357;BME280;31092;51.924;21.448;2023-04-01T03:20:52;98247.28;;;5.77;100.00
45357;BME280;31092;51.924;21.448;2023-04-01T03:23:17;98221.19;;;5.64;100.00
45357;BME280;31092;51.924;21.448;2023-04-01T03:25:45;98291.78;;;5.99;100.00
45357;BME280;31092;51.924;21.448;2023-04-01T03:28:10;98297.50;;;5.96;100.00
45357;BME280;31092;51.924;21.448;2023-04-01T03:30:37;98289.09;;;5.85;100.00
45357;BME280;31092;51.924;21.448;2023-04-01T03:33:03;98289.44;;;5.82;100.00
45357;BME280;31092;51.924;21.448;2023-04-01T03:35:28;98323.94;;;5.91;100.00
45357;BME280;31092;51.924;21.448;2023-04-01T03:37:54;98241.72;;;5.34;100.00
45357;BME280;31092;51.924;21.448;2023-04-01T03:40:20;98259.84;;;5.39;100.00
45357;BME280;31092;51.924;21.448;2023-04-01T03:42:46;98235.44;;;5.27;100.00
45357;BME280;31092;51.924;21.448;2023-04-01T03:45:12;98305.94;;;5.70;100.00
45357;BME280;31092;51.924;21.448;2023-04-01T03:47:38;98233.75;;;5.26;100.00
45357;BME280;31092;51.924;21.448;2023-04-01T03:50:04;98278.28;;;5.63;100.00
45357;BME280;31092;51.924;21.448;2023-04-01T03:52:30;98318.41;;;5.93;100.00
45357;BME280;31092;51.924;21.448;2023-04-01T03:54:56;98306.22;;;5.90;100.00
45357;BME280;31092;51.924;21.448;2023-04-01T03:57:21;98251.47;;;5.57;100.00
45357;BME280;31092;51.924;21.448;2023-04-01T03:59:47;98341.47;;;6.23;100.00
45357;BME280;31092;51.924;21.448;2023-04-01T04:02:12;98274.34;;;5.89;100.00
45357;BME280;31092;51.924;21.448;2023-04-01T04:04:38;98280.34;;;5.91;100.00
45357;BME280;31092;51.924;21.448;2023-04-01T04:07:03;98270.50;;;5.91;100.00
45357;BME280;31092;51.924;21.448;2023-04-01T04:09:30;98357.78;;;6.43;100.00
45357;BME280;31092;51.924;21.448;2023-04-01T04:11:56;98297.22;;;6.06;100.00
45357;BME280;31092;51.924;21.448;2023-04-01T04:14:22;98304.06;;;6.09;100.00
45357;BME280;31092;51.924;21.448;2023-04-01T04:16:48;98301.19;;;6.10;100.00
45357;BME280;31092;51.924;21.448;2023-04-01T04:19:14;98300.91;;;6.20;100.00
45357;BME280;31092;51.924;21.448;2023-04-01T04:21:40;98370.38;;;6.64;100.00
45357;BME280;31092;51.924;21.448;2023-04-01T04:24:06;98306.81;;;6.30;100.00
45357;BME280;31092;51.924;21.448;2023-04-01T04:26:32;98348.75;;;6.59;100.00
45357;BME280;31092;51.924;21.448;2023-04-01T04:28:57;98328.44;;;6.50;100.00
45357;BME280;31092;51.924;21.448;2023-04-01T04:31:24;98341.34;;;6.61;100.00
45357;BME280;31092;51.924;21.448;2023-04-01T04:33:50;98293.44;;;6.30;100.00
45357;BME280;31092;51.924;21.448;2023-04-01T04:36:17;98296.94;;;6.31;100.00
45357;BME280;31092;51.924;21.448;2023-04-01T04:38:42;98378.22;;;6.81;100.00
45357;BME280;31092;51.924;21.448;2023-04-01T04:41:09;98301.34;;;6.38;100.00
45357;BME280;31092;51.924;21.448;2023-04-01T04:43:35;98290.50;;;6.25;100.00
45357;BME280;31092;51.924;21.448;2023-04-01T04:46:07;98309.59;;;6.37;100.00
45357;BME280;31092;51.924;21.448;2023-04-01T04:48:32;98293.16;;;6.25;100.00
45357;BME280;31092;51.924;21.448;2023-04-01T04:50:58;98341.34;;;6.61;100.00
45357;BME280;31092;51.924;21.448;2023-04-01T04:53:24;98307.63;;;6.45;100.00
45357;BME280;31092;51.924;21.448;2023-04-01T04:55:50;98366.56;;;6.88;100.00
45357;BME280;31092;51.924;21.448;2023-04-01T04:58:16;98298.41;;;6.48;100.00
45357;BME280;31092;51.924;21.448;2023-04-01T05:00:42;98316.91;;;6.64;100.00
45357;BME280;31092;51.924;21.448;2023-04-01T05:03:09;98381.66;;;7.11;100.00
45357;BME280;31092;51.924;21.448;2023-04-01T05:05:35;98383.31;;;7.12;100.00
45357;BME280;31092;51.924;21.448;2023-04-01T05:08:01;98332.81;;;6.87;100.00
45357;BME280;31092;51.924;21.448;2023-04-01T05:10:26;98337.78;;;6.90;100.00
45357;BME280;31092;51.924;21.448;2023-04-01T05:12:52;98371.22;;;7.16;100.00
45357;BME280;31092;51.924;21.448;2023-04-01T05:15:17;98292.81;;;6.64;100.00
45357;BME280;31092;51.924;21.448;2023-04-01T05:17:43;98372.66;;;7.18;100.00
45357;BME280;31092;51.924;21.448;2023-04-01T05:20:08;98325.63;;;6.88;100.00
45357;BME280;31092;51.924;21.448;2023-04-01T05:22:35;98359.59;;;7.09;100.00
45357;BME280;31092;51.924;21.448;2023-04-01T05:25:00;98383.28;;;7.27;100.00
45357;BME280;31092;51.924;21.448;2023-04-01T05:27:26;98335.63;;;7.01;100.00
45357;BME280;31092;51.924;21.448;2023-04-01T05:29:51;98373.56;;;7.26;100.00
45357;BME280;31092;51.924;21.448;2023-04-01T05:32:17;98396.41;;;7.43;100.00
45357;BME280;31092;51.924;21.448;2023-04-01T05:34:42;98390.59;;;7.39;100.00
45357;BME280;31092;51.924;21.448;2023-04-01T05:37:08;98306.22;;;6.86;100.00
45357;BME280;31092;51.924;21.448;2023-04-01T05:39:37;98396.91;;;7.53;100.00
45357;BME280;31092;51.924;21.448;2023-04-01T05:42:04;98377.09;;;7.48;100.00
45357;BME280;31092;51.924;21.448;2023-04-01T05:44:30;98386.53;;;7.65;100.00
45357;BME280;31092;51.924;21.448;2023-04-01T05:46:56;98311.97;;;7.26;100.00
45357;BME280;31092;51.924;21.448;2023-04-01T05:49:21;98314.16;;;7.37;100.00
45357;BME280;31092;51.924;21.448;2023-04-01T05:51:47;98400.81;;;8.00;100.00
45357;BME280;31092;51.924;21.448;2023-04-01T05:54:12;98367.16;;;7.91;100.00
45357;BME280;31092;51.924;21.448;2023-04-01T05:56:38;98397.19;;;8.08;100.00
45357;BME280;31092;51.924;21.448;2023-04-01T05:59:03;98368.88;;;7.99;100.00
45357;BME280;31092;51.924;21.448;2023-04-01T06:01:29;98388.06;;;8.30;100.00
45357;BME280;31092;51.924;21.448;2023-04-01T06:03:54;98310.72;;;7.99;100.00
45357;BME280;31092;51.924;21.448;2023-04-01T06:06:24;98304.81;;;8.10;100.00
45357;BME280;31092;51.924;21.448;2023-04-01T06:08:52;98394.28;;;8.66;100.00
45357;BME280;31092;51.924;21.448;2023-04-01T06:11:37;98379.41;;;8.63;100.00
45357;BME280;31092;51.924;21.448;2023-04-01T06:14:19;98386.31;;;8.79;100.00
45357;BME280;31092;51.924;21.448;2023-04-01T06:17:02;98387.16;;;8.86;100.00
45357;BME280;31092;51.924;21.448;2023-04-01T06:30:44;98298.53;;;8.73;100.00
45357;BME280;31092;51.924;21.448;2023-04-01T06:39:25;98357.78;;;9.52;100.00
45357;BME280;31092;51.924;21.448;2023-04-01T06:52:50;98354.47;;;9.64;100.00
45357;BME280;31092;51.924;21.448;2023-04-01T06:55:23;98373.94;;;9.79;100.00
45357;BME280;31092;51.924;21.448;2023-04-01T06:57:55;98295.13;;;9.39;100.00
45357;BME280;31092;51.924;21.448;2023-04-01T07:00:40;98277.78;;;9.41;100.00
45357;BME280;31092;51.924;21.448;2023-04-01T07:05:43;98367.53;;;10.00;100.00
45357;BME280;31092;51.924;21.448;2023-04-01T07:08:13;98366.28;;;9.96;100.00
45357;BME280;31092;51.924;21.448;2023-04-01T07:13:29;98379.50;;;9.77;100.00
45357;BME280;31092;51.924;21.448;2023-04-01T07:16:05;98312.47;;;9.16;100.00
45357;BME280;31092;51.924;21.448;2023-04-01T07:18:39;98329.00;;;9.13;100.00
45357;BME280;31092;51.924;21.448;2023-04-01T07:21:12;98387.53;;;9.38;100.00
45357;BME280;31092;51.924;21.448;2023-04-01T07:23:44;98360.00;;;9.22;100.00
45357;BME280;31092;51.924;21.448;2023-04-01T07:26:22;98329.59;;;9.02;100.00
45357;BME280;31092;51.924;21.448;2023-04-01T07:28:48;98394.38;;;9.47;100.00
45357;BME280;31092;51.924;21.448;2023-04-01T07:31:42;98389.84;;;9.74;100.00
45357;BME280;31092;51.924;21.448;2023-04-01T07:34:20;98397.31;;;10.05;100.00
45357;BME280;31092;51.924;21.448;2023-04-01T07:37:15;98318.72;;;9.90;100.00
45357;BME280;31092;51.924;21.448;2023-04-01T07:50:29;98327.75;;;10.35;100.00
45357;BME280;31092;51.924;21.448;2023-04-01T07:54:03;98393.75;;;10.64;100.00
45357;BME280;31092;51.924;21.448;2023-04-01T07:56:02;98392.53;;;10.53;100.00
45357;BME280;31092;51.924;21.448;2023-04-01T08:07:17;98413.03;;;10.35;100.00
45357;BME280;31092;51.924;21.448;2023-04-01T08:12:58;98369.38;;;10.26;100.00
45357;BME280;31092;51.924;21.448;2023-04-01T08:15:28;98356.75;;;10.33;100.00
45357;BME280;31092;51.924;21.448;2023-04-01T08:20:27;98423.53;;;10.76;100.00
45357;BME280;31092;51.924;21.448;2023-04-01T08:25:28;98405.63;;;11.01;100.00
45357;BME280;31092;51.924;21.448;2023-04-01T08:28:13;98416.13;;;11.16;100.00
45357;BME280;31092;51.924;21.448;2023-04-01T08:30:48;98413.28;;;11.05;100.00
45357;BME280;31092;51.924;21.448;2023-04-01T08:33:27;98400.94;;;10.77;100.00
45357;BME280;31092;51.924;21.448;2023-04-01T08:36:15;98407.59;;;10.74;100.00
45357;BME280;31092;51.924;21.448;2023-04-01T08:39:03;98412.13;;;10.74;100.00
45357;BME280;31092;51.924;21.448;2023-04-01T08:55:19;98426.06;;;11.16;100.00
45357;BME280;31092;51.924;21.448;2023-04-01T09:06:35;98420.81;;;10.83;100.00
45357;BME280;31092;51.924;21.448;2023-04-01T09:12:17;98426.41;;;10.81;100.00
45357;BME280;31092;51.924;21.448;2023-04-01T09:17:47;98434.06;;;10.84;100.00
45357;BME280;31092;51.924;21.448;2023-04-01T09:26:13;98430.13;;;10.80;100.00
45357;BME280;31092;51.924;21.448;2023-04-01T09:39:56;98431.66;;;11.21;100.00
45357;BME280;31092;51.924;21.448;2023-04-01T09:51:37;98427.31;;;11.58;100.00
45357;BME280;31092;51.924;21.448;2023-04-01T09:54:31;98436.25;;;11.52;100.00
45357;BME280;31092;51.924;21.448;2023-04-01T10:56:40;98415.63;;;12.89;100.00
45357;BME280;31092;51.924;21.448;2023-04-01T10:58:49;98417.41;;;12.59;100.00
45357;BME280;31092;51.924;21.448;2023-04-01T11:12:20;98423.59;;;12.16;100.00
45357;BME280;31092;51.924;21.448;2023-04-01T11:24:50;98408.56;;;13.25;100.00
45357;BME280;31092;51.924;21.448;2023-04-01T11:30:22;98355.19;;;12.84;100.00
45357;BME280;31092;51.924;21.448;2023-04-01T11:35:42;98401.44;;;13.31;100.00
45357;BME280;31092;51.924;21.448;2023-04-01T11:44:23;98396.84;;;13.31;100.00
45357;BME280;31092;51.924;21.448;2023-04-01T12:06:52;98402.50;;;12.93;100.00
45357;BME280;31092;51.924;21.448;2023-04-01T12:09:52;98413.97;;;12.70;100.00
45357;BME280;31092;51.924;21.448;2023-04-01T12:15:48;98426.00;;;11.74;100.00
45357;BME280;31092;51.924;21.448;2023-04-01T12:45:35;98406.97;;;9.40;100.00
45357;BME280;31092;51.924;21.448;2023-04-01T12:56:14;98408.66;;;9.54;100.00
45357;BME280;31092;51.924;21.448;2023-04-01T12:59:08;98479.84;;;9.98;100.00
45357;BME280;31092;51.924;21.448;2023-04-01T13:02:00;98407.00;;;9.46;100.00
45357;BME280;31092;51.924;21.448;2023-04-01T13:10:04;98481.84;;;9.63;100.00
45357;BME280;31092;51.924;21.448;2023-04-01T13:15:41;98496.94;;;9.57;100.00
45357;BME280;31092;51.924;21.448;2023-04-01T13:32:40;98493.88;;;9.80;100.00
45357;BME280;31092;51.924;21.448;2023-04-01T13:43:52;98490.97;;;9.68;100.00
45357;BME280;31092;51.924;21.448;2023-04-01T13:49:26;98508.78;;;9.76;100.00
45357;BME280;31092;51.924;21.448;2023-04-01T13:52:17;98491.38;;;9.65;100.00
45357;BME280;31092;51.924;21.448;2023-04-01T14:03:09;98516.25;;;9.87;100.00
45357;BME280;31092;51.924;21.448;2023-04-01T14:17:00;98439.09;;;9.94;100.00
45357;BME280;31092;51.924;21.448;2023-04-01T14:19:49;98496.69;;;10.40;100.00
45357;BME280;31092;51.924;21.448;2023-04-01T14:38:59;98532.28;;;10.48;100.00
45357;BME280;31092;51.924;21.448;2023-04-01T14:41:48;98524.59;;;10.45;100.00
45357;BME280;31092;51.924;21.448;2023-04-01T14:50:11;98469.31;;;10.23;100.00
45357;BME280;31092;51.924;21.448;2023-04-01T14:52:41;98527.94;;;10.54;100.00
45357;BME280;31092;51.924;21.448;2023-04-01T14:58:18;98530.81;;;10.59;100.00
45357;BME280;31092;51.924;21.448;2023-04-01T15:00:58;98536.22;;;10.59;100.00
45357;BME280;31092;51.924;21.448;2023-04-01T15:03:29;98457.72;;;10.16;100.00
45357;BME280;31092;51.924;21.448;2023-04-01T15:12:04;98539.09;;;10.77;100.00
45357;BME280;31092;51.924;21.448;2023-04-01T15:17:43;98494.81;;;10.53;100.00
45357;BME280;31092;51.924;21.448;2023-04-01T15:33:30;98566.44;;;10.81;100.00
45357;BME280;31092;51.924;21.448;2023-04-01T15:38:51;98563.53;;;10.56;100.00
45357;BME280;31092;51.924;21.448;2023-04-01T15:44:02;98487.31;;;9.89;100.00
45357;BME280;31092;51.924;21.448;2023-04-01T15:46:47;98562.69;;;10.29;100.00
45357;BME280;31092;51.924;21.448;2023-04-01T15:54:32;98580.44;;;10.23;100.00
45357;BME280;31092;51.924;21.448;2023-04-01T15:57:23;98501.72;;;9.68;100.00
45357;BME280;31092;51.924;21.448;2023-04-01T16:08:22;98611.38;;;9.45;100.00
45357;BME280;31092;51.924;21.448;2023-04-01T16:10:58;98621.44;;;9.29;100.00
45357;BME280;31092;51.924;21.448;2023-04-01T16:21:53;98568.06;;;8.63;100.00
45357;BME280;31092;51.924;21.448;2023-04-01T16:24:41;98651.16;;;9.00;100.00
45357;BME280;31092;51.924;21.448;2023-04-01T16:33:11;98573.16;;;8.52;100.00
45357;BME280;31092;51.924;21.448;2023-04-01T16:35:50;98655.47;;;8.94;100.00
45357;BME280;31092;51.924;21.448;2023-04-01T16:40:52;98661.03;;;8.93;100.00
45357;BME280;31092;51.924;21.448;2023-04-01T16:43:49;98662.88;;;8.92;100.00
45357;BME280;31092;51.924;21.448;2023-04-01T16:46:38;98666.41;;;8.93;100.00
45357;BME280;31092;51.924;21.448;2023-04-01T16:52:03;98672.78;;;8.92;100.00
45357;BME280;31092;51.924;21.448;2023-04-01T16:54:58;98681.06;;;8.90;100.00
45357;BME280;31092;51.924;21.448;2023-04-01T16:57:37;98696.34;;;8.90;100.00
45357;BME280;31092;51.924;21.448;2023-04-01T17:00:22;98608.06;;;8.37;100.00
45357;BME280;31092;51.924;21.448;2023-04-01T17:03:21;98695.91;;;8.86;100.00
45357;BME280;31092;51.924;21.448;2023-04-01T17:11:36;98625.88;;;8.23;100.00
45357;BME280;31092;51.924;21.448;2023-04-01T17:14:32;98717.41;;;8.71;100.00
45357;BME280;31092;51.924;21.448;2023-04-01T17:17:13;98727.53;;;8.69;100.00
45357;BME280;31092;51.924;21.448;2023-04-01T17:20:03;98730.56;;;8.66;100.00
45357;BME280;31092;51.924;21.448;2023-04-01T17:22:54;98721.75;;;8.51;100.00
45357;BME280;31092;51.924;21.448;2023-04-01T17:44:56;98729.84;;;7.91;100.00
45357;BME280;31092;51.924;21.448;2023-04-01T17:48:29;98783.94;;;8.10;100.00
45357;BME280;31092;51.924;21.448;2023-04-01T17:53:54;98789.75;;;7.99;100.00
45357;BME280;31092;51.924;21.448;2023-04-01T17:56:45;98796.31;;;7.96;100.00
45357;BME280;31092;51.924;21.448;2023-04-01T17:59:36;98800.13;;;7.87;100.00
45357;BME280;31092;51.924;21.448;2023-04-01T18:08:17;98815.19;;;7.88;100.00
45357;BME280;31092;51.924;21.448;2023-04-01T18:17:24;98734.88;;;7.27;100.00
45357;BME280;31092;51.924;21.448;2023-04-01T18:30:51;98755.84;;;7.24;100.00
45357;BME280;31092;51.924;21.448;2023-04-01T18:33:26;98794.03;;;7.40;100.00
45357;BME280;31092;51.924;21.448;2023-04-01T18:38:41;98831.56;;;7.55;100.00
45357;BME280;31092;51.924;21.448;2023-04-01T18:41:31;98854.41;;;7.66;100.00
45357;BME280;31092;51.924;21.448;2023-04-01T18:46:38;98870.84;;;7.63;100.00
45357;BME280;31092;51.924;21.448;2023-04-01T18:49:21;98870.19;;;7.61;100.00
45357;BME280;31092;51.924;21.448;2023-04-01T18:51:57;98831.88;;;7.37;100.00
45357;BME280;31092;51.924;21.448;2023-04-01T18:57:18;98887.00;;;7.55;100.00
45357;BME280;31092;51.924;21.448;2023-04-01T18:59:53;98832.31;;;7.26;100.00
45357;BME280;31092;51.924;21.448;2023-04-01T19:02:45;98884.50;;;7.53;100.00
45357;BME280;31092;51.924;21.448;2023-04-01T19:07:46;98886.88;;;7.48;100.00
45357;BME280;31092;51.924;21.448;2023-04-01T19:22:44;98924.97;;;7.35;100.00
45357;BME280;31092;51.924;21.448;2023-04-01T19:24:48;98926.19;;;7.33;100.00
45357;BME280;31092;51.924;21.448;2023-04-01T19:27:38;98921.53;;;7.27;100.00
45357;BME280;31092;51.924;21.448;2023-04-01T19:35:42;98925.56;;;7.23;100.00
45357;BME280;31092;51.924;21.448;2023-04-01T19:38:39;98932.09;;;7.20;100.00
45357;BME280;31092;51.924;21.448;2023-04-01T19:41:15;98944.78;;;7.26;100.00
45357;BME280;31092;51.924;21.448;2023-04-01T19:43:50;98942.94;;;7.27;100.00
45357;BME280;31092;51.924;21.448;2023-04-01T20:00:21;98963.06;;;7.23;100.00
45357;BME280;31092;51.924;21.448;2023-04-01T20:03:07;98964.22;;;7.20;100.00
45357;BME280;31092;51.924;21.448;2023-04-01T20:08:31;98889.84;;;6.68;100.00
45357;BME280;31092;51.924;21.448;2023-04-01T20:17:11;98971.44;;;7.11;100.00
45357;BME280;31092;51.924;21.448;2023-04-01T20:19:43;98955.81;;;6.92;100.00
45357;BME280;31092;51.924;21.448;2023-04-01T20:24:52;98907.78;;;6.59;100.00
45357;BME280;31092;51.924;21.448;2023-04-01T20:27:27;98991.22;;;7.10;100.00
45357;BME280;31092;51.924;21.448;2023-04-01T20:30:23;98974.84;;;6.97;100.00
45357;BME280;31092;51.924;21.448;2023-04-01T20:41:23;99020.16;;;7.07;100.00
45357;BME280;31092;51.924;21.448;2023-04-01T20:44:04;99012.31;;;7.05;100.00
45357;BME280;31092;51.924;21.448;2023-04-01T20:46:58;99015.16;;;7.04;100.00
45357;BME280;31092;51.924;21.448;2023-04-01T20:49:39;99024.41;;;7.01;100.00
45357;BME280;31092;51.924;21.448;2023-04-01T20:57:25;99038.28;;;6.96;100.00
45357;BME280;31092;51.924;21.448;2023-04-01T21:03:06;99021.94;;;6.83;100.00
45357;BME280;31092;51.924;21.448;2023-04-01T21:08:56;99045.13;;;6.99;100.00
45357;BME280;31092;51.924;21.448;2023-04-01T21:11:28;99062.72;;;7.02;100.00
45357;BME280;31092;51.924;21.448;2023-04-01T21:25:17;99060.84;;;7.02;100.00
45357;BME280;31092;51.924;21.448;2023-04-01T21:30:29;99062.72;;;7.02;100.00
45357;BME280;31092;51.924;21.448;2023-04-01T21:35:44;99078.28;;;6.98;100.00
45357;BME280;31092;51.924;21.448;2023-04-01T21:41:11;99063.41;;;6.87;100.00
45357;BME280;31092;51.924;21.448;2023-04-01T21:43:51;99083.13;;;6.94;100.00
45357;BME280;31092;51.924;21.448;2023-04-01T21:46:47;99092.16;;;6.93;100.00
45357;BME280;31092;51.924;21.448;2023-04-01T21:52:24;99101.38;;;6.91;100.00
45357;BME280;31092;51.924;21.448;2023-04-01T21:58:27;99098.22;;;6.87;100.00
45357;BME280;31092;51.924;21.448;2023-04-01T22:01:08;99104.72;;;6.85;100.00
45357;BME280;31092;51.924;21.448;2023-04-01T22:06:29;99108.78;;;6.72;100.00
45357;BME280;31092;51.924;21.448;2023-04-01T22:09:03;99016.69;;;6.10;100.00
45357;BME280;31092;51.924;21.448;2023-04-01T22:17:22;99053.59;;;6.22;100.00
45357;BME280;31092;51.924;21.448;2023-04-01T22:25:40;99055.94;;;6.17;100.00
45357;BME280;31092;51.924;21.448;2023-04-01T22:28:14;99127.81;;;6.53;100.00
45357;BME280;31092;51.924;21.448;2023-04-01T22:30:50;99108.59;;;6.41;100.00
45357;BME280;31092;51.924;21.448;2023-04-01T22:42:17;99148.06;;;6.47;100.00
45357;BME280;31092;51.924;21.448;2023-04-01T22:50:26;99158.59;;;6.41;100.00
45357;BME280;31092;51.924;21.448;2023-04-01T22:53:25;99156.06;;;6.39;100.00
45357;BME280;31092;51.924;21.448;2023-04-01T22:55:49;99133.81;;;6.22;100.00
45357;BME280;31092;51.924;21.448;2023-04-01T22:58:21;99138.81;;;6.26;100.00
45357;BME280;31092;51.924;21.448;2023-04-01T23:01:14;99095.16;;;5.92;100.00
45357;BME280;31092;51.924;21.448;2023-04-01T23:03:43;99150.84;;;6.21;100.00
45357;BME280;31092;51.924;21.448;2023-04-01T23:06:20;99074.06;;;5.73;100.00
45357;BME280;31092;51.924;21.448;2023-04-01T23:08:58;99175.59;;;6.32;100.00
45357;BME280;31092;51.924;21.448;2023-04-01T23:11:33;99171.28;;;6.31;100.00
45357;BME280;31092;51.924;21.448;2023-04-01T23:16:52;99174.91;;;6.21;100.00
45357;BME280;31092;51.924;21.448;2023-04-01T23:24:55;99191.47;;;6.25;100.00
45357;BME280;31092;51.924;21.448;2023-04-01T23:27:43;99156.69;;;6.09;100.00
45357;BME280;31092;51.924;21.448;2023-04-01T23:36:12;99197.13;;;6.22;100.00
45357;BME280;31092;51.924;21.448;2023-04-01T23:38:41;99084.88;;;5.55;100.00